sensor_id;sensor_type;location;lat;lon;timestamp;temperature;humidity
68977;SHT31;56029;52.568;13.588;2022-11-21T00:01:15;-2.58;99.99
68977;SHT31;56029;52.568;13.588;2022-11-21T00:03:41;-2.53;99.99
68977;SHT31;56029;52.568;13.588;2022-11-21T00:06:06;-2.51;99.99
68977;SHT31;56029;52.568;13.588;2022-11-21T00:08:32;-2.44;99.97
68977;SHT31;56029;52.568;13.588;2022-11-21T00:10:58;-2.41;99.97
68977;SHT31;56029;52.568;13.588;2022-11-21T00:13:24;-2.38;99.99
68977;SHT31;56029;52.568;13.588;2022-11-21T00:15:49;-2.37;99.99
68977;SHT31;56029;52.568;13.588;2022-11-21T00:18:15;-2.31;99.87
68977;SHT31;56029;52.568;13.588;2022-11-21T00:20:41;-2.28;99.53
68977;SHT31;56029;52.568;13.588;2022-11-21T00:23:07;-2.25;99.47
68977;SHT31;56029;52.568;13.588;2022-11-21T00:25:33;-2.24;99.35
68977;SHT31;56029;52.568;13.588;2022-11-21T00:27:58;-2.21;99.31
68977;SHT31;56029;52.568;13.588;2022-11-21T00:30:24;-2.21;99.26
68977;SHT31;56029;52.568;13.588;2022-11-21T00:32:50;-2.18;99.26
68977;SHT31;56029;52.568;13.588;2022-11-21T00:35:15;-2.18;99.22
68977;SHT31;56029;52.568;13.588;2022-11-21T00:37:41;-2.15;99.25
68977;SHT31;56029;52.568;13.588;2022-11-21T00:40:07;-2.12;99.23
68977;SHT31;56029;52.568;13.588;2022-11-21T00:42:33;-2.10;98.94
68977;SHT31;56029;52.568;13.588;2022-11-21T00:44:58;-2.10;98.83
68977;SHT31;56029;52.568;13.588;2022-11-21T00:47:24;-2.10;98.50
68977;SHT31;56029;52.568;13.588;2022-11-21T00:49:49;-2.10;98.26
68977;SHT31;56029;52.568;13.588;2022-11-21T00:52:16;-2.11;98.30
68977;SHT31;56029;52.568;13.588;2022-11-21T00:54:41;-2.08;98.29
68977;SHT31;56029;52.568;13.588;2022-11-21T00:57:07;-2.10;98.27
68977;SHT31;56029;52.568;13.588;2022-11-21T00:59:32;-2.08;98.40
68977;SHT31;56029;52.568;13.588;2022-11-21T01:01:58;-2.07;98.78
68977;SHT31;56029;52.568;13.588;2022-11-21T01:04:24;-2.07;98.68
68977;SHT31;56029;52.568;13.588;2022-11-21T01:06:49;-2.00;98.84
68977;SHT31;56029;52.568;13.588;2022-11-21T01:09:15;-2.01;98.88
68977;SHT31;56029;52.568;13.588;2022-11-21T01:11:40;-2.03;98.78
68977;SHT31;56029;52.568;13.588;2022-11-21T01:14:06;-2.00;98.93
68977;SHT31;56029;52.568;13.588;2022-11-21T01:16:32;-2.00;98.90
68977;SHT31;56029;52.568;13.588;2022-11-21T01:18:57;-1.95;98.96
68977;SHT31;56029;52.568;13.588;2022-11-21T01:21:26;-1.94;98.90
68977;SHT31;56029;52.568;13.588;2022-11-21T01:23:52;-1.91;98.68
68977;SHT31;56029;52.568;13.588;2022-11-21T01:26:23;-1.89;98.76
68977;SHT31;56029;52.568;13.588;2022-11-21T01:28:49;-1.86;99.00
68977;SHT31;56029;52.568;13.588;2022-11-21T01:31:16;-1.82;98.92
68977;SHT31;56029;52.568;13.588;2022-11-21T01:33:42;-1.80;98.78
68977;SHT31;56029;52.568;13.588;2022-11-21T01:36:09;-1.80;98.59
68977;SHT31;56029;52.568;13.588;2022-11-21T01:38:36;-1.73;98.91
68977;SHT31;56029;52.568;13.588;2022-11-21T01:41:02;-1.72;98.98
68977;SHT31;56029;52.568;13.588;2022-11-21T01:43:27;-1.64;98.75
68977;SHT31;56029;52.568;13.588;2022-11-21T01:48:54;-1.62;98.68
68977;SHT31;56029;52.568;13.588;2022-11-21T01:51:33;-1.60;98.66
68977;SHT31;56029;52.568;13.588;2022-11-21T01:56:40;-1.62;98.85
68977;SHT31;56029;52.568;13.588;2022-11-21T01:59:10;-1.59;98.91
68977;SHT31;56029;52.568;13.588;2022-11-21T02:01:39;-1.55;99.05
68977;SHT31;56029;52.568;13.588;2022-11-21T02:04:05;-1.52;99.07
68977;SHT31;56029;52.568;13.588;2022-11-21T02:06:32;-1.48;99.00
68977;SHT31;56029;52.568;13.588;2022-11-21T02:08:59;-1.49;98.62
68977;SHT31;56029;52.568;13.588;2022-11-21T02:11:30;-1.53;98.43
68977;SHT31;56029;52.568;13.588;2022-11-21T02:13:57;-1.55;98.50
68977;SHT31;56029;52.568;13.588;2022-11-21T02:16:24;-1.56;98.51
68977;SHT31;56029;52.568;13.588;2022-11-21T02:18:49;-1.52;98.29
68977;SHT31;56029;52.568;13.588;2022-11-21T02:21:28;-1.56;98.22
68977;SHT31;56029;52.568;13.588;2022-11-21T02:24:16;-1.58;98.07
68977;SHT31;56029;52.568;13.588;2022-11-21T02:26:45;-1.59;98.08
68977;SHT31;56029;52.568;13.588;2022-11-21T02:29:12;-1.59;98.23
68977;SHT31;56029;52.568;13.588;2022-11-21T02:31:38;-1.63;98.39
68977;SHT31;56029;52.568;13.588;2022-11-21T02:34:03;-1.64;98.53
68977;SHT31;56029;52.568;13.588;2022-11-21T02:36:43;-1.64;98.77
68977;SHT31;56029;52.568;13.588;2022-11-21T02:39:15;-1.67;98.78
68977;SHT31;56029;52.568;13.588;2022-11-21T02:41:47;-1.66;98.66
68977;SHT31;56029;52.568;13.588;2022-11-21T02:44:21;-1.69;98.91
68977;SHT31;56029;52.568;13.588;2022-11-21T02:46:50;-1.67;98.81
68977;SHT31;56029;52.568;13.588;2022-11-21T02:49:36;-1.63;98.68
68977;SHT31;56029;52.568;13.588;2022-11-21T02:52:04;-1.62;98.32
68977;SHT31;56029;52.568;13.588;2022-11-21T02:54:29;-1.66;98.41
68977;SHT31;56029;52.568;13.588;2022-11-21T02:56:55;-1.69;98.42
68977;SHT31;56029;52.568;13.588;2022-11-21T02:59:21;-1.69;98.54
68977;SHT31;56029;52.568;13.588;2022-11-21T03:01:47;-1.70;98.71
68977;SHT31;56029;52.568;13.588;2022-11-21T03:04:13;-1.66;98.79
68977;SHT31;56029;52.568;13.588;2022-11-21T03:06:38;-1.67;98.71
68977;SHT31;56029;52.568;13.588;2022-11-21T03:09:04;-1.66;98.94
68977;SHT31;56029;52.568;13.588;2022-11-21T03:11:29;-1.66;98.83
68977;SHT31;56029;52.568;13.588;2022-11-21T03:13:55;-1.64;98.68
68977;SHT31;56029;52.568;13.588;2022-11-21T03:16:20;-1.67;98.78
68977;SHT31;56029;52.568;13.588;2022-11-21T03:18:46;-1.67;98.63
68977;SHT31;56029;52.568;13.588;2022-11-21T03:21:12;-1.69;98.59
68977;SHT31;56029;52.568;13.588;2022-11-21T03:23:37;-1.69;98.81
68977;SHT31;56029;52.568;13.588;2022-11-21T03:26:03;-1.67;98.83
68977;SHT31;56029;52.568;13.588;2022-11-21T03:28:28;-1.66;98.64
68977;SHT31;56029;52.568;13.588;2022-11-21T03:30:54;-1.66;98.73
68977;SHT31;56029;52.568;13.588;2022-11-21T03:33:19;-1.73;98.81
68977;SHT31;56029;52.568;13.588;2022-11-21T03:35:46;-1.70;98.92
68977;SHT31;56029;52.568;13.588;2022-11-21T03:38:12;-1.69;98.87
68977;SHT31;56029;52.568;13.588;2022-11-21T03:40:37;-1.67;98.72
68977;SHT31;56029;52.568;13.588;2022-11-21T03:43:04;-1.72;98.66
68977;SHT31;56029;52.568;13.588;2022-11-21T03:45:31;-1.72;98.84
68977;SHT31;56029;52.568;13.588;2022-11-21T03:47:56;-1.72;98.99
68977;SHT31;56029;52.568;13.588;2022-11-21T03:50:22;-1.79;99.09
68977;SHT31;56029;52.568;13.588;2022-11-21T03:52:47;-1.80;99.14
68977;SHT31;56029;52.568;13.588;2022-11-21T03:55:13;-1.84;99.10
68977;SHT31;56029;52.568;13.588;2022-11-21T03:57:39;-1.89;99.35
68977;SHT31;56029;52.568;13.588;2022-11-21T04:00:05;-1.91;99.48
68977;SHT31;56029;52.568;13.588;2022-11-21T04:02:31;-1.94;99.56
68977;SHT31;56029;52.568;13.588;2022-11-21T04:04:56;-1.94;99.67
68977;SHT31;56029;52.568;13.588;2022-11-21T04:07:22;-1.97;99.67
68977;SHT31;56029;52.568;13.588;2022-11-21T04:09:47;-1.95;99.72
68977;SHT31;56029;52.568;13.588;2022-11-21T04:12:13;-1.95;99.62
68977;SHT31;56029;52.568;13.588;2022-11-21T04:14:39;-1.95;99.54
68977;SHT31;56029;52.568;13.588;2022-11-21T04:17:04;-2.00;99.53
68977;SHT31;56029;52.568;13.588;2022-11-21T04:19:30;-2.04;99.60
68977;SHT31;56029;52.568;13.588;2022-11-21T04:21:55;-2.03;99.65
68977;SHT31;56029;52.568;13.588;2022-11-21T04:24:21;-2.04;99.73
68977;SHT31;56029;52.568;13.588;2022-11-21T04:26:46;-2.07;99.93
68977;SHT31;56029;52.568;13.588;2022-11-21T04:29:12;-2.05;99.97
68977;SHT31;56029;52.568;13.588;2022-11-21T04:31:37;-2.07;99.99
68977;SHT31;56029;52.568;13.588;2022-11-21T04:34:03;-2.04;99.99
68977;SHT31;56029;52.568;13.588;2022-11-21T04:36:29;-2.04;99.97
68977;SHT31;56029;52.568;13.588;2022-11-21T04:38:54;-2.01;99.96
68977;SHT31;56029;52.568;13.588;2022-11-21T04:41:20;-1.98;99.99
68977;SHT31;56029;52.568;13.588;2022-11-21T04:43:45;-1.97;99.89
68977;SHT31;56029;52.568;13.588;2022-11-21T04:46:11;-1.91;99.92
68977;SHT31;56029;52.568;13.588;2022-11-21T04:48:36;-1.87;99.83
68977;SHT31;56029;52.568;13.588;2022-11-21T04:51:02;-1.83;99.79
68977;SHT31;56029;52.568;13.588;2022-11-21T04:53:27;-1.77;99.75
68977;SHT31;56029;52.568;13.588;2022-11-21T04:55:53;-1.82;99.35
68977;SHT31;56029;52.568;13.588;2022-11-21T04:58:18;-1.87;99.51
68977;SHT31;56029;52.568;13.588;2022-11-21T05:00:44;-1.86;99.59
68977;SHT31;56029;52.568;13.588;2022-11-21T05:03:10;-2.03;99.11
68977;SHT31;56029;52.568;13.588;2022-11-21T05:05:35;-2.08;99.49
68977;SHT31;56029;52.568;13.588;2022-11-21T05:08:01;-2.15;99.90
68977;SHT31;56029;52.568;13.588;2022-11-21T05:10:27;-2.20;99.99
68977;SHT31;56029;52.568;13.588;2022-11-21T05:12:57;-2.17;99.99
68977;SHT31;56029;52.568;13.588;2022-11-21T05:15:41;-2.15;99.99
68977;SHT31;56029;52.568;13.588;2022-11-21T05:18:07;-2.12;99.99
68977;SHT31;56029;52.568;13.588;2022-11-21T05:20:32;-2.05;99.99
68977;SHT31;56029;52.568;13.588;2022-11-21T05:22:58;-2.04;99.99
68977;SHT31;56029;52.568;13.588;2022-11-21T05:25:23;-2.01;99.99
68977;SHT31;56029;52.568;13.588;2022-11-21T05:27:49;-1.93;99.99
68977;SHT31;56029;52.568;13.588;2022-11-21T05:30:14;-1.95;99.99
68977;SHT31;56029;52.568;13.588;2022-11-21T05:32:42;-1.90;99.99
68977;SHT31;56029;52.568;13.588;2022-11-21T05:35:07;-1.90;99.99
68977;SHT31;56029;52.568;13.588;2022-11-21T05:37:33;-1.83;99.99
68977;SHT31;56029;52.568;13.588;2022-11-21T05:39:58;-1.79;99.99
68977;SHT31;56029;52.568;13.588;2022-11-21T05:42:24;-1.79;99.99
68977;SHT31;56029;52.568;13.588;2022-11-21T05:45:08;-1.74;99.99
68977;SHT31;56029;52.568;13.588;2022-11-21T05:47:34;-1.74;99.99
68977;SHT31;56029;52.568;13.588;2022-11-21T05:49:59;-1.72;99.99
68977;SHT31;56029;52.568;13.588;2022-11-21T05:52:27;-1.80;99.44
68977;SHT31;56029;52.568;13.588;2022-11-21T05:54:52;-1.83;99.66
68977;SHT31;56029;52.568;13.588;2022-11-21T05:57:18;-1.82;99.70
68977;SHT31;56029;52.568;13.588;2022-11-21T05:59:43;-1.84;99.90
68977;SHT31;56029;52.568;13.588;2022-11-21T06:02:09;-1.84;99.86
68977;SHT31;56029;52.568;13.588;2022-11-21T06:04:53;-1.89;99.88
68977;SHT31;56029;52.568;13.588;2022-11-21T06:07:18;-1.89;99.98
68977;SHT31;56029;52.568;13.588;2022-11-21T06:09:44;-1.87;99.99
68977;SHT31;56029;52.568;13.588;2022-11-21T06:12:09;-1.90;99.99
68977;SHT31;56029;52.568;13.588;2022-11-21T06:14:35;-1.87;99.99
68977;SHT31;56029;52.568;13.588;2022-11-21T06:17:00;-1.87;99.99
68977;SHT31;56029;52.568;13.588;2022-11-21T06:19:26;-1.90;99.99
68977;SHT31;56029;52.568;13.588;2022-11-21T06:21:51;-1.87;99.99
68977;SHT31;56029;52.568;13.588;2022-11-21T06:24:17;-1.86;99.99
68977;SHT31;56029;52.568;13.588;2022-11-21T06:26:42;-1.80;99.99
68977;SHT31;56029;52.568;13.588;2022-11-21T06:29:11;-1.84;99.99
68977;SHT31;56029;52.568;13.588;2022-11-21T06:31:36;-1.82;99.99
68977;SHT31;56029;52.568;13.588;2022-11-21T06:34:02;-1.82;99.99
68977;SHT31;56029;52.568;13.588;2022-11-21T06:36:28;-1.80;99.99
68977;SHT31;56029;52.568;13.588;2022-11-21T06:38:54;-1.83;99.99
68977;SHT31;56029;52.568;13.588;2022-11-21T06:41:29;-1.83;99.99
68977;SHT31;56029;52.568;13.588;2022-11-21T06:43:58;-1.86;99.99
68977;SHT31;56029;52.568;13.588;2022-11-21T06:46:27;-1.84;99.99
68977;SHT31;56029;52.568;13.588;2022-11-21T06:48:53;-1.83;99.99
68977;SHT31;56029;52.568;13.588;2022-11-21T06:51:20;-1.86;99.99
68977;SHT31;56029;52.568;13.588;2022-11-21T06:53:46;-1.86;99.99
68977;SHT31;56029;52.568;13.588;2022-11-21T06:56:15;-1.87;99.99
68977;SHT31;56029;52.568;13.588;2022-11-21T06:58:41;-1.97;99.99
68977;SHT31;56029;52.568;13.588;2022-11-21T07:01:08;-2.04;99.99
68977;SHT31;56029;52.568;13.588;2022-11-21T07:03:34;-2.05;99.99
68977;SHT31;56029;52.568;13.588;2022-11-21T07:06:01;-2.17;99.99
68977;SHT31;56029;52.568;13.588;2022-11-21T07:08:31;-2.22;99.99
68977;SHT31;56029;52.568;13.588;2022-11-21T07:11:04;-2.24;99.99
68977;SHT31;56029;52.568;13.588;2022-11-21T07:13:30;-2.32;99.99
68977;SHT31;56029;52.568;13.588;2022-11-21T07:16:02;-2.34;99.99
68977;SHT31;56029;52.568;13.588;2022-11-21T07:18:27;-2.39;99.99
68977;SHT31;56029;52.568;13.588;2022-11-21T07:20:57;-2.39;99.99
68977;SHT31;56029;52.568;13.588;2022-11-21T07:23:22;-2.49;99.99
68977;SHT31;56029;52.568;13.588;2022-11-21T07:25:48;-2.53;99.99
68977;SHT31;56029;52.568;13.588;2022-11-21T07:28:14;-2.56;99.99
68977;SHT31;56029;52.568;13.588;2022-11-21T07:30:39;-2.61;99.99
68977;SHT31;56029;52.568;13.588;2022-11-21T07:33:05;-2.61;99.99
68977;SHT31;56029;52.568;13.588;2022-11-21T07:35:32;-2.61;99.99
68977;SHT31;56029;52.568;13.588;2022-11-21T07:37:58;-2.62;99.99
68977;SHT31;56029;52.568;13.588;2022-11-21T07:40:24;-2.62;99.99
68977;SHT31;56029;52.568;13.588;2022-11-21T07:42:50;-2.66;99.99
68977;SHT31;56029;52.568;13.588;2022-11-21T07:45:16;-2.66;99.99
68977;SHT31;56029;52.568;13.588;2022-11-21T07:47:42;-2.66;99.99
68977;SHT31;56029;52.568;13.588;2022-11-21T07:50:11;-2.69;99.99
68977;SHT31;56029;52.568;13.588;2022-11-21T07:52:36;-2.73;99.99
68977;SHT31;56029;52.568;13.588;2022-11-21T07:55:03;-2.73;99.99
68977;SHT31;56029;52.568;13.588;2022-11-21T07:57:30;-2.73;99.99
68977;SHT31;56029;52.568;13.588;2022-11-21T07:59:57;-2.73;99.99
68977;SHT31;56029;52.568;13.588;2022-11-21T08:02:25;-2.68;99.99
68977;SHT31;56029;52.568;13.588;2022-11-21T08:04:50;-2.68;99.99
68977;SHT31;56029;52.568;13.588;2022-11-21T08:07:17;-2.73;99.99
68977;SHT31;56029;52.568;13.588;2022-11-21T08:09:44;-2.69;99.99
68977;SHT31;56029;52.568;13.588;2022-11-21T08:12:10;-2.66;99.99
68977;SHT31;56029;52.568;13.588;2022-11-21T08:14:36;-2.56;99.99
68977;SHT31;56029;52.568;13.588;2022-11-21T08:17:02;-2.42;99.99
68977;SHT31;56029;52.568;13.588;2022-11-21T08:19:28;-2.39;99.99
68977;SHT31;56029;52.568;13.588;2022-11-21T08:21:53;-2.35;99.99
68977;SHT31;56029;52.568;13.588;2022-11-21T08:24:19;-2.38;99.99
68977;SHT31;56029;52.568;13.588;2022-11-21T08:26:44;-2.30;99.99
68977;SHT31;56029;52.568;13.588;2022-11-21T08:29:11;-2.25;99.99
68977;SHT31;56029;52.568;13.588;2022-11-21T08:31:38;-2.22;99.99
68977;SHT31;56029;52.568;13.588;2022-11-21T08:34:04;-2.28;99.99
68977;SHT31;56029;52.568;13.588;2022-11-21T08:36:29;-2.17;99.99
68977;SHT31;56029;52.568;13.588;2022-11-21T08:38:55;-2.12;99.99
68977;SHT31;56029;52.568;13.588;2022-11-21T08:41:20;-2.01;99.99
68977;SHT31;56029;52.568;13.588;2022-11-21T08:44:05;-1.95;99.99
68977;SHT31;56029;52.568;13.588;2022-11-21T08:46:32;-1.93;99.99
68977;SHT31;56029;52.568;13.588;2022-11-21T08:49:00;-1.91;99.99
68977;SHT31;56029;52.568;13.588;2022-11-21T08:51:25;-1.87;99.99
68977;SHT31;56029;52.568;13.588;2022-11-21T08:53:51;-1.79;99.99
68977;SHT31;56029;52.568;13.588;2022-11-21T08:56:17;-1.84;99.99
68977;SHT31;56029;52.568;13.588;2022-11-21T08:58:42;-1.87;99.99
68977;SHT31;56029;52.568;13.588;2022-11-21T09:01:08;-1.91;99.99
68977;SHT31;56029;52.568;13.588;2022-11-21T09:03:33;-1.91;99.99
68977;SHT31;56029;52.568;13.588;2022-11-21T09:05:59;-1.93;99.99
68977;SHT31;56029;52.568;13.588;2022-11-21T09:08:25;-1.93;99.99
68977;SHT31;56029;52.568;13.588;2022-11-21T09:10:51;-1.90;99.99
68977;SHT31;56029;52.568;13.588;2022-11-21T09:13:17;-1.89;99.99
68977;SHT31;56029;52.568;13.588;2022-11-21T09:15:42;-1.87;99.99
68977;SHT31;56029;52.568;13.588;2022-11-21T09:18:27;-1.87;99.99
68977;SHT31;56029;52.568;13.588;2022-11-21T09:20:52;-1.86;99.99
68977;SHT31;56029;52.568;13.588;2022-11-21T09:23:18;-1.86;99.99
68977;SHT31;56029;52.568;13.588;2022-11-21T09:25:44;-1.87;99.99
68977;SHT31;56029;52.568;13.588;2022-11-21T09:28:11;-1.84;99.99
68977;SHT31;56029;52.568;13.588;2022-11-21T09:30:36;-1.83;99.99
68977;SHT31;56029;52.568;13.588;2022-11-21T09:33:04;-1.73;99.99
68977;SHT31;56029;52.568;13.588;2022-11-21T09:35:30;-1.72;99.99
68977;SHT31;56029;52.568;13.588;2022-11-21T09:37:57;-1.64;99.99
68977;SHT31;56029;52.568;13.588;2022-11-21T09:40:22;-1.70;99.99
68977;SHT31;56029;52.568;13.588;2022-11-21T09:45:41;-1.66;99.99
68977;SHT31;56029;52.568;13.588;2022-11-21T09:48:12;-1.60;99.99
68977;SHT31;56029;52.568;13.588;2022-11-21T09:50:41;-1.59;99.99
68977;SHT31;56029;52.568;13.588;2022-11-21T09:53:19;-1.56;99.99
68977;SHT31;56029;52.568;13.588;2022-11-21T09:58:29;-1.49;99.99
68977;SHT31;56029;52.568;13.588;2022-11-21T10:00:55;-1.59;99.99
68977;SHT31;56029;52.568;13.588;2022-11-21T10:03:23;-1.58;99.99
68977;SHT31;56029;52.568;13.588;2022-11-21T10:05:57;-1.48;99.99
68977;SHT31;56029;52.568;13.588;2022-11-21T10:08:40;-1.52;99.99
68977;SHT31;56029;52.568;13.588;2022-11-21T10:11:20;-1.52;99.99
68977;SHT31;56029;52.568;13.588;2022-11-21T10:16:45;-1.67;99.99
68977;SHT31;56029;52.568;13.588;2022-11-21T10:19:27;-1.56;99.99
68977;SHT31;56029;52.568;13.588;2022-11-21T10:22:07;-1.56;99.99
68977;SHT31;56029;52.568;13.588;2022-11-21T10:24:54;-1.64;99.99
68977;SHT31;56029;52.568;13.588;2022-11-21T10:27:34;-1.60;99.99
68977;SHT31;56029;52.568;13.588;2022-11-21T10:30:05;-1.70;99.99
68977;SHT31;56029;52.568;13.588;2022-11-21T10:32:36;-1.70;99.99
68977;SHT31;56029;52.568;13.588;2022-11-21T10:35:16;-1.64;99.99
68977;SHT31;56029;52.568;13.588;2022-11-21T10:37:46;-1.73;99.99
68977;SHT31;56029;52.568;13.588;2022-11-21T10:40:41;-1.84;99.99
68977;SHT31;56029;52.568;13.588;2022-11-21T10:43:44;-1.83;99.99
68977;SHT31;56029;52.568;13.588;2022-11-21T10:46:32;-1.82;99.99
68977;SHT31;56029;52.568;13.588;2022-11-21T10:48:59;-1.84;99.99
68977;SHT31;56029;52.568;13.588;2022-11-21T10:51:50;-1.90;99.99
68977;SHT31;56029;52.568;13.588;2022-11-21T10:54:18;-1.97;99.99
68977;SHT31;56029;52.568;13.588;2022-11-21T10:57:19;-1.98;99.99
68977;SHT31;56029;52.568;13.588;2022-11-21T11:02:40;-2.24;99.99
68977;SHT31;56029;52.568;13.588;2022-11-21T11:05:25;-2.21;99.99
68977;SHT31;56029;52.568;13.588;2022-11-21T11:08:11;-2.25;99.99
68977;SHT31;56029;52.568;13.588;2022-11-21T11:10:41;-2.24;99.99
68977;SHT31;56029;52.568;13.588;2022-11-21T11:13:12;-2.22;99.99
68977;SHT31;56029;52.568;13.588;2022-11-21T11:16:00;-2.22;99.99
68977;SHT31;56029;52.568;13.588;2022-11-21T11:18:27;-2.20;99.99
68977;SHT31;56029;52.568;13.588;2022-11-21T11:21:08;-2.18;99.99
68977;SHT31;56029;52.568;13.588;2022-11-21T11:23:35;-2.24;99.50
68977;SHT31;56029;52.568;13.588;2022-11-21T11:26:01;-2.20;98.99
68977;SHT31;56029;52.568;13.588;2022-11-21T11:28:34;-2.12;99.08
68977;SHT31;56029;52.568;13.588;2022-11-21T11:30:59;-2.17;98.93
68977;SHT31;56029;52.568;13.588;2022-11-21T11:33:50;-2.05;98.79
68977;SHT31;56029;52.568;13.588;2022-11-21T11:36:23;-2.11;98.75
68977;SHT31;56029;52.568;13.588;2022-11-21T11:38:59;-2.05;98.77
68977;SHT31;56029;52.568;13.588;2022-11-21T11:47:47;-1.98;98.84
68977;SHT31;56029;52.568;13.588;2022-11-21T11:50:20;-1.84;98.88
68977;SHT31;56029;52.568;13.588;2022-11-21T11:53:03;-1.74;98.07
68977;SHT31;56029;52.568;13.588;2022-11-21T11:58:01;-1.42;97.31
68977;SHT31;56029;52.568;13.588;2022-11-21T12:00:50;-1.25;96.85
68977;SHT31;56029;52.568;13.588;2022-11-21T12:03:30;-1.30;95.79
68977;SHT31;56029;52.568;13.588;2022-11-21T12:06:19;-1.45;95.87
68977;SHT31;56029;52.568;13.588;2022-11-21T12:08:57;-1.56;96.11
68977;SHT31;56029;52.568;13.588;2022-11-21T12:11:51;-1.59;96.36
68977;SHT31;56029;52.568;13.588;2022-11-21T12:18:12;-1.62;96.71
68977;SHT31;56029;52.568;13.588;2022-11-21T12:23:38;-1.53;97.38
68977;SHT31;56029;52.568;13.588;2022-11-21T12:34:34;-1.35;96.44
68977;SHT31;56029;52.568;13.588;2022-11-21T12:43:42;-1.45;96.29
68977;SHT31;56029;52.568;13.588;2022-11-21T12:46:18;-1.48;96.61
68977;SHT31;56029;52.568;13.588;2022-11-21T12:48:51;-1.38;96.62
68977;SHT31;56029;52.568;13.588;2022-11-21T12:55:08;-1.30;97.10
68977;SHT31;56029;52.568;13.588;2022-11-21T12:57:45;-1.32;96.36
68977;SHT31;56029;52.568;13.588;2022-11-21T13:00:41;-1.14;96.72
68977;SHT31;56029;52.568;13.588;2022-11-21T13:03:27;-1.14;95.11
68977;SHT31;56029;52.568;13.588;2022-11-21T13:05:54;-1.25;95.18
68977;SHT31;56029;52.568;13.588;2022-11-21T13:08:24;-1.27;95.27
68977;SHT31;56029;52.568;13.588;2022-11-21T13:11:17;-1.21;95.75
68977;SHT31;56029;52.568;13.588;2022-11-21T13:16:38;-0.87;95.66
68977;SHT31;56029;52.568;13.588;2022-11-21T13:19:42;-0.79;95.05
68977;SHT31;56029;52.568;13.588;2022-11-21T13:22:51;-0.95;94.39
68977;SHT31;56029;52.568;13.588;2022-11-21T13:25:40;-0.93;94.73
68977;SHT31;56029;52.568;13.588;2022-11-21T13:30:47;-1.03;94.78
68977;SHT31;56029;52.568;13.588;2022-11-21T13:36:09;-0.87;95.14
68977;SHT31;56029;52.568;13.588;2022-11-21T13:47:07;-0.60;94.11
68977;SHT31;56029;52.568;13.588;2022-11-21T13:50:06;-0.59;93.89
68977;SHT31;56029;52.568;13.588;2022-11-21T13:55:55;-0.52;93.94
68977;SHT31;56029;52.568;13.588;2022-11-21T13:58:39;-0.53;94.28
68977;SHT31;56029;52.568;13.588;2022-11-21T14:06:24;-0.43;94.78
68977;SHT31;56029;52.568;13.588;2022-11-21T14:11:44;-0.42;94.78
68977;SHT31;56029;52.568;13.588;2022-11-21T14:14:27;-0.39;94.83
68977;SHT31;56029;52.568;13.588;2022-11-21T14:17:03;-0.40;94.78
68977;SHT31;56029;52.568;13.588;2022-11-21T14:19:30;-0.46;93.92
68977;SHT31;56029;52.568;13.588;2022-11-21T14:21:59;-0.52;93.69
68977;SHT31;56029;52.568;13.588;2022-11-21T14:24:26;-0.53;94.39
68977;SHT31;56029;52.568;13.588;2022-11-21T14:26:51;-0.49;94.59
68977;SHT31;56029;52.568;13.588;2022-11-21T14:29:37;-0.50;94.27
68977;SHT31;56029;52.568;13.588;2022-11-21T14:32:03;-0.53;94.33
68977;SHT31;56029;52.568;13.588;2022-11-21T14:34:30;-0.57;93.86
68977;SHT31;56029;52.568;13.588;2022-11-21T14:37:03;-0.60;94.02
68977;SHT31;56029;52.568;13.588;2022-11-21T14:39:32;-0.64;93.86
68977;SHT31;56029;52.568;13.588;2022-11-21T14:42:01;-0.67;94.21
68977;SHT31;56029;52.568;13.588;2022-11-21T14:44:27;-0.70;94.29
68977;SHT31;56029;52.568;13.588;2022-11-21T14:47:11;-0.66;94.25
68977;SHT31;56029;52.568;13.588;2022-11-21T14:49:47;-0.67;93.85
68977;SHT31;56029;52.568;13.588;2022-11-21T14:52:18;-0.73;93.67
68977;SHT31;56029;52.568;13.588;2022-11-21T14:54:49;-0.76;93.84
68977;SHT31;56029;52.568;13.588;2022-11-21T14:57:19;-0.84;93.70
68977;SHT31;56029;52.568;13.588;2022-11-21T14:59:46;-0.87;94.41
68977;SHT31;56029;52.568;13.588;2022-11-21T15:02:20;-1.01;94.75
68977;SHT31;56029;52.568;13.588;2022-11-21T15:04:48;-0.98;94.98
68977;SHT31;56029;52.568;13.588;2022-11-21T15:07:22;-1.01;94.74
68977;SHT31;56029;52.568;13.588;2022-11-21T15:09:49;-1.07;94.57
68977;SHT31;56029;52.568;13.588;2022-11-21T15:12:21;-1.12;94.63
68977;SHT31;56029;52.568;13.588;2022-11-21T15:14:54;-1.16;94.80
68977;SHT31;56029;52.568;13.588;2022-11-21T15:17:22;-1.21;95.21
68977;SHT31;56029;52.568;13.588;2022-11-21T15:22:37;-1.22;95.56
68977;SHT31;56029;52.568;13.588;2022-11-21T15:27:40;-1.24;95.31
68977;SHT31;56029;52.568;13.588;2022-11-21T15:33:10;-1.18;94.88
68977;SHT31;56029;52.568;13.588;2022-11-21T15:38:02;-1.14;95.83
68977;SHT31;56029;52.568;13.588;2022-11-21T15:40:27;-1.14;95.92
68977;SHT31;56029;52.568;13.588;2022-11-21T15:42:53;-1.11;96.06
68977;SHT31;56029;52.568;13.588;2022-11-21T15:45:24;-1.11;95.89
68977;SHT31;56029;52.568;13.588;2022-11-21T15:47:50;-1.08;96.11
68977;SHT31;56029;52.568;13.588;2022-11-21T15:50:16;-1.05;95.72
68977;SHT31;56029;52.568;13.588;2022-11-21T15:52:49;-1.14;95.95
68977;SHT31;56029;52.568;13.588;2022-11-21T15:55:26;-1.15;96.04
68977;SHT31;56029;52.568;13.588;2022-11-21T15:57:53;-1.16;95.70
68977;SHT31;56029;52.568;13.588;2022-11-21T16:00:19;-1.16;96.03
68977;SHT31;56029;52.568;13.588;2022-11-21T16:02:44;-1.19;95.92
68977;SHT31;56029;52.568;13.588;2022-11-21T16:05:11;-1.19;96.33
68977;SHT31;56029;52.568;13.588;2022-11-21T16:07:38;-1.18;96.54
68977;SHT31;56029;52.568;13.588;2022-11-21T16:10:04;-1.27;96.20
68977;SHT31;56029;52.568;13.588;2022-11-21T16:12:30;-1.19;97.61
68977;SHT31;56029;52.568;13.588;2022-11-21T16:14:56;-1.15;96.96
68977;SHT31;56029;52.568;13.588;2022-11-21T16:17:21;-1.16;96.67
68977;SHT31;56029;52.568;13.588;2022-11-21T16:19:47;-1.12;96.87
68977;SHT31;56029;52.568;13.588;2022-11-21T16:22:12;-1.11;96.97
68977;SHT31;56029;52.568;13.588;2022-11-21T16:24:38;-1.12;96.77
68977;SHT31;56029;52.568;13.588;2022-11-21T16:27:03;-1.11;96.85
68977;SHT31;56029;52.568;13.588;2022-11-21T16:29:29;-1.09;97.11
68977;SHT31;56029;52.568;13.588;2022-11-21T16:31:54;-1.09;97.00
68977;SHT31;56029;52.568;13.588;2022-11-21T16:34:20;-1.11;97.15
68977;SHT31;56029;52.568;13.588;2022-11-21T16:36:46;-1.14;97.08
68977;SHT31;56029;52.568;13.588;2022-11-21T16:39:12;-1.14;97.12
68977;SHT31;56029;52.568;13.588;2022-11-21T16:41:38;-1.14;97.04
68977;SHT31;56029;52.568;13.588;2022-11-21T16:44:11;-1.12;97.03
68977;SHT31;56029;52.568;13.588;2022-11-21T16:46:41;-1.11;97.04
68977;SHT31;56029;52.568;13.588;2022-11-21T16:49:08;-1.08;97.12
68977;SHT31;56029;52.568;13.588;2022-11-21T16:51:33;-1.08;97.14
68977;SHT31;56029;52.568;13.588;2022-11-21T16:53:59;-1.05;97.16
68977;SHT31;56029;52.568;13.588;2022-11-21T16:56:24;-1.04;97.10
68977;SHT31;56029;52.568;13.588;2022-11-21T16:58:51;-1.01;97.42